sensor_id;sensor_type;location;lat;lon;timestamp;temperature;humidity
16408;DHT22;8313;49.894;8.084;2023-04-05T00:01:22;5.10;98.10
16408;DHT22;8313;49.894;8.084;2023-04-05T00:03:53;5.10;98.40
16408;DHT22;8313;49.894;8.084;2023-04-05T00:06:26;5.10;98.10
16408;DHT22;8313;49.894;8.084;2023-04-05T00:09:00;5.10;98.00
16408;DHT22;8313;49.894;8.084;2023-04-05T00:11:29;5.00;97.90
16408;DHT22;8313;49.894;8.084;2023-04-05T00:13:58;5.00;98.00
16408;DHT22;8313;49.894;8.084;2023-04-05T00:16:26;5.00;98.00
16408;DHT22;8313;49.894;8.084;2023-04-05T00:18:52;5.00;98.10
16408;DHT22;8313;49.894;8.084;2023-04-05T00:21:19;5.00;98.20
16408;DHT22;8313;49.894;8.084;2023-04-05T00:23:55;4.90;97.90
16408;DHT22;8313;49.894;8.084;2023-04-05T00:26:24;4.90;98.10
16408;DHT22;8313;49.894;8.084;2023-04-05T00:28:54;4.90;98.30
16408;DHT22;8313;49.894;8.084;2023-04-05T00:31:20;4.80;98.20
16408;DHT22;8313;49.894;8.084;2023-04-05T00:33:45;4.90;98.30
16408;DHT22;8313;49.894;8.084;2023-04-05T00:36:19;4.90;98.40
16408;DHT22;8313;49.894;8.084;2023-04-05T00:38:46;4.90;98.40
16408;DHT22;8313;49.894;8.084;2023-04-05T00:41:13;4.90;98.10
16408;DHT22;8313;49.894;8.084;2023-04-05T00:43:39;4.80;98.20
16408;DHT22;8313;49.894;8.084;2023-04-05T00:46:06;4.80;98.10
16408;DHT22;8313;49.894;8.084;2023-04-05T00:48:33;4.80;98.20
16408;DHT22;8313;49.894;8.084;2023-04-05T00:51:00;4.80;98.20
16408;DHT22;8313;49.894;8.084;2023-04-05T00:53:26;4.80;98.10
16408;DHT22;8313;49.894;8.084;2023-04-05T00:55:52;4.80;98.20
16408;DHT22;8313;49.894;8.084;2023-04-05T00:58:19;4.70;98.10
16408;DHT22;8313;49.894;8.084;2023-04-05T01:03:40;4.70;98.20
16408;DHT22;8313;49.894;8.084;2023-04-05T01:09:23;4.70;98.30
16408;DHT22;8313;49.894;8.084;2023-04-05T01:11:53;4.70;98.40
16408;DHT22;8313;49.894;8.084;2023-04-05T01:14:21;4.60;98.60
16408;DHT22;8313;49.894;8.084;2023-04-05T01:16:47;4.60;98.60
16408;DHT22;8313;49.894;8.084;2023-04-05T01:19:16;4.60;98.40
16408;DHT22;8313;49.894;8.084;2023-04-05T01:21:54;4.50;98.70
16408;DHT22;8313;49.894;8.084;2023-04-05T01:30:03;4.60;98.40
16408;DHT22;8313;49.894;8.084;2023-04-05T01:37:48;4.60;98.70
16408;DHT22;8313;49.894;8.084;2023-04-05T01:40:18;4.50;99.10
16408;DHT22;8313;49.894;8.084;2023-04-05T01:42:43;4.50;98.60
16408;DHT22;8313;49.894;8.084;2023-04-05T01:45:11;4.50;98.60
16408;DHT22;8313;49.894;8.084;2023-04-05T01:47:36;4.50;98.40
16408;DHT22;8313;49.894;8.084;2023-04-05T01:50:02;4.40;98.70
16408;DHT22;8313;49.894;8.084;2023-04-05T01:52:28;4.50;98.70
16408;DHT22;8313;49.894;8.084;2023-04-05T01:54:54;4.50;98.50
16408;DHT22;8313;49.894;8.084;2023-04-05T01:57:20;4.40;98.70
16408;DHT22;8313;49.894;8.084;2023-04-05T01:59:45;4.40;98.90
16408;DHT22;8313;49.894;8.084;2023-04-05T02:02:11;4.40;99.20
16408;DHT22;8313;49.894;8.084;2023-04-05T02:04:37;4.40;98.90
16408;DHT22;8313;49.894;8.084;2023-04-05T02:07:03;4.40;98.80
16408;DHT22;8313;49.894;8.084;2023-04-05T02:09:28;4.30;98.90
16408;DHT22;8313;49.894;8.084;2023-04-05T02:11:54;4.30;99.00
16408;DHT22;8313;49.894;8.084;2023-04-05T02:14:21;4.30;99.10
16408;DHT22;8313;49.894;8.084;2023-04-05T02:16:46;4.20;99.10
16408;DHT22;8313;49.894;8.084;2023-04-05T02:19:13;4.20;99.20
16408;DHT22;8313;49.894;8.084;2023-04-05T02:21:40;4.20;99.00
16408;DHT22;8313;49.894;8.084;2023-04-05T02:24:06;4.20;98.90
16408;DHT22;8313;49.894;8.084;2023-04-05T02:26:32;4.20;99.00
16408;DHT22;8313;49.894;8.084;2023-04-05T02:28:57;4.20;99.00
16408;DHT22;8313;49.894;8.084;2023-04-05T02:31:23;4.20;99.10
16408;DHT22;8313;49.894;8.084;2023-04-05T02:33:49;4.20;99.00
16408;DHT22;8313;49.894;8.084;2023-04-05T02:36:14;4.20;98.70
16408;DHT22;8313;49.894;8.084;2023-04-05T02:38:40;4.10;99.10
16408;DHT22;8313;49.894;8.084;2023-04-05T02:41:09;4.10;99.00
16408;DHT22;8313;49.894;8.084;2023-04-05T02:43:38;4.10;99.00
16408;DHT22;8313;49.894;8.084;2023-04-05T02:46:04;4.10;98.80
16408;DHT22;8313;49.894;8.084;2023-04-05T02:48:31;4.00;98.90
16408;DHT22;8313;49.894;8.084;2023-04-05T02:50:57;4.00;98.90
16408;DHT22;8313;49.894;8.084;2023-04-05T02:53:22;4.00;98.90
16408;DHT22;8313;49.894;8.084;2023-04-05T02:55:56;4.00;98.90
16408;DHT22;8313;49.894;8.084;2023-04-05T02:58:23;3.90;99.20
16408;DHT22;8313;49.894;8.084;2023-04-05T03:00:49;4.00;99.30
16408;DHT22;8313;49.894;8.084;2023-04-05T03:03:20;3.90;99.20
16408;DHT22;8313;49.894;8.084;2023-04-05T03:05:46;3.90;99.30
16408;DHT22;8313;49.894;8.084;2023-04-05T03:08:18;3.90;99.20
16408;DHT22;8313;49.894;8.084;2023-04-05T03:10:51;3.90;99.00
16408;DHT22;8313;49.894;8.084;2023-04-05T03:13:17;3.90;98.90
16408;DHT22;8313;49.894;8.084;2023-04-05T03:15:43;3.90;99.20
16408;DHT22;8313;49.894;8.084;2023-04-05T03:18:13;3.90;99.30
16408;DHT22;8313;49.894;8.084;2023-04-05T03:20:40;3.80;99.30
16408;DHT22;8313;49.894;8.084;2023-04-05T03:23:14;3.80;99.30
16408;DHT22;8313;49.894;8.084;2023-04-05T03:25:41;3.80;99.30
16408;DHT22;8313;49.894;8.084;2023-04-05T03:28:08;3.80;99.00
16408;DHT22;8313;49.894;8.084;2023-04-05T03:30:35;3.80;98.90
16408;DHT22;8313;49.894;8.084;2023-04-05T03:33:12;3.70;98.80
16408;DHT22;8313;49.894;8.084;2023-04-05T03:35:42;3.70;99.20
16408;DHT22;8313;49.894;8.084;2023-04-05T03:38:09;3.70;99.20
16408;DHT22;8313;49.894;8.084;2023-04-05T03:40:40;3.70;98.90
16408;DHT22;8313;49.894;8.084;2023-04-05T03:43:08;3.50;99.20
16408;DHT22;8313;49.894;8.084;2023-04-05T03:45:34;3.60;99.20
16408;DHT22;8313;49.894;8.084;2023-04-05T03:48:00;3.60;99.10
16408;DHT22;8313;49.894;8.084;2023-04-05T03:50:26;3.60;99.00
16408;DHT22;8313;49.894;8.084;2023-04-05T03:52:52;3.50;99.30
16408;DHT22;8313;49.894;8.084;2023-04-05T03:55:18;3.50;99.20
16408;DHT22;8313;49.894;8.084;2023-04-05T03:57:44;3.50;99.20
16408;DHT22;8313;49.894;8.084;2023-04-05T04:00:20;3.50;99.20
16408;DHT22;8313;49.894;8.084;2023-04-05T04:03:02;3.40;99.50
16408;DHT22;8313;49.894;8.084;2023-04-05T04:05:28;3.40;99.50
16408;DHT22;8313;49.894;8.084;2023-04-05T04:07:54;3.40;99.50
16408;DHT22;8313;49.894;8.084;2023-04-05T04:10:21;3.40;99.50
16408;DHT22;8313;49.894;8.084;2023-04-05T04:12:50;3.30;99.80
16408;DHT22;8313;49.894;8.084;2023-04-05T04:15:17;3.40;99.60
16408;DHT22;8313;49.894;8.084;2023-04-05T04:17:58;3.40;99.50
16408;DHT22;8313;49.894;8.084;2023-04-05T04:20:42;3.40;99.20
16408;DHT22;8313;49.894;8.084;2023-04-05T04:23:27;3.40;99.10
16408;DHT22;8313;49.894;8.084;2023-04-05T04:26:13;3.40;99.10
16408;DHT22;8313;49.894;8.084;2023-04-05T04:29:05;3.40;99.10
16408;DHT22;8313;49.894;8.084;2023-04-05T04:31:49;3.40;99.10
16408;DHT22;8313;49.894;8.084;2023-04-05T04:34:30;3.40;99.40
16408;DHT22;8313;49.894;8.084;2023-04-05T04:37:28;3.40;99.30
16408;DHT22;8313;49.894;8.084;2023-04-05T04:40:18;3.30;99.30
16408;DHT22;8313;49.894;8.084;2023-04-05T04:42:56;3.30;99.60
16408;DHT22;8313;49.894;8.084;2023-04-05T04:45:58;3.20;99.20
16408;DHT22;8313;49.894;8.084;2023-04-05T04:48:49;3.30;99.40
16408;DHT22;8313;49.894;8.084;2023-04-05T04:51:31;3.30;99.40
16408;DHT22;8313;49.894;8.084;2023-04-05T04:53:57;3.30;99.40
16408;DHT22;8313;49.894;8.084;2023-04-05T04:56:23;3.30;99.30
16408;DHT22;8313;49.894;8.084;2023-04-05T04:58:51;3.30;99.20
16408;DHT22;8313;49.894;8.084;2023-04-05T05:01:17;3.30;99.20
16408;DHT22;8313;49.894;8.084;2023-04-05T05:03:43;3.30;99.30
16408;DHT22;8313;49.894;8.084;2023-04-05T05:06:09;3.20;99.50
16408;DHT22;8313;49.894;8.084;2023-04-05T05:08:35;3.30;99.30
16408;DHT22;8313;49.894;8.084;2023-04-05T05:11:06;3.30;99.40
16408;DHT22;8313;49.894;8.084;2023-04-05T05:13:31;3.20;99.40
16408;DHT22;8313;49.894;8.084;2023-04-05T05:15:57;3.30;99.40
16408;DHT22;8313;49.894;8.084;2023-04-05T05:18:25;3.20;99.40
16408;DHT22;8313;49.894;8.084;2023-04-05T05:20:51;3.20;99.30
16408;DHT22;8313;49.894;8.084;2023-04-05T05:23:17;3.20;99.20
16408;DHT22;8313;49.894;8.084;2023-04-05T05:25:42;3.20;99.50
16408;DHT22;8313;49.894;8.084;2023-04-05T05:28:08;3.20;99.40
16408;DHT22;8313;49.894;8.084;2023-04-05T05:30:34;3.20;99.40
16408;DHT22;8313;49.894;8.084;2023-04-05T05:33:00;3.20;99.60
16408;DHT22;8313;49.894;8.084;2023-04-05T05:35:26;3.20;99.60
16408;DHT22;8313;49.894;8.084;2023-04-05T05:37:52;3.30;99.60
16408;DHT22;8313;49.894;8.084;2023-04-05T05:40:18;3.30;99.50
16408;DHT22;8313;49.894;8.084;2023-04-05T05:42:43;3.30;99.60
16408;DHT22;8313;49.894;8.084;2023-04-05T05:45:09;3.30;99.30
16408;DHT22;8313;49.894;8.084;2023-04-05T05:47:35;3.30;99.60
16408;DHT22;8313;49.894;8.084;2023-04-05T05:50:01;3.30;99.50
16408;DHT22;8313;49.894;8.084;2023-04-05T05:52:27;3.30;99.70
16408;DHT22;8313;49.894;8.084;2023-04-05T05:54:53;3.30;99.90
16408;DHT22;8313;49.894;8.084;2023-04-05T05:57:19;3.40;99.80
16408;DHT22;8313;49.894;8.084;2023-04-05T05:59:45;3.40;99.70
16408;DHT22;8313;49.894;8.084;2023-04-05T06:02:11;3.40;99.70
16408;DHT22;8313;49.894;8.084;2023-04-05T06:04:36;3.40;99.70
16408;DHT22;8313;49.894;8.084;2023-04-05T06:07:02;3.40;99.80
16408;DHT22;8313;49.894;8.084;2023-04-05T06:09:28;3.40;99.90
16408;DHT22;8313;49.894;8.084;2023-04-05T06:11:54;3.40;99.90
16408;DHT22;8313;49.894;8.084;2023-04-05T06:14:21;3.40;99.90
16408;DHT22;8313;49.894;8.084;2023-04-05T06:16:47;3.40;99.90
16408;DHT22;8313;49.894;8.084;2023-04-05T06:19:13;3.50;99.90
16408;DHT22;8313;49.894;8.084;2023-04-05T06:21:38;3.50;99.90
16408;DHT22;8313;49.894;8.084;2023-04-05T06:24:04;3.50;99.90
16408;DHT22;8313;49.894;8.084;2023-04-05T06:26:30;3.50;99.90
16408;DHT22;8313;49.894;8.084;2023-04-05T06:28:56;3.60;99.90
16408;DHT22;8313;49.894;8.084;2023-04-05T06:31:26;3.60;99.90
16408;DHT22;8313;49.894;8.084;2023-04-05T06:33:55;3.60;99.90
16408;DHT22;8313;49.894;8.084;2023-04-05T06:36:21;3.60;99.90
16408;DHT22;8313;49.894;8.084;2023-04-05T06:38:46;3.70;99.90
16408;DHT22;8313;49.894;8.084;2023-04-05T06:41:12;3.70;99.90
16408;DHT22;8313;49.894;8.084;2023-04-05T06:43:37;3.70;99.90
16408;DHT22;8313;49.894;8.084;2023-04-05T06:46:03;3.80;99.90
16408;DHT22;8313;49.894;8.084;2023-04-05T06:48:33;3.80;99.90
16408;DHT22;8313;49.894;8.084;2023-04-05T06:50:59;3.80;99.90
16408;DHT22;8313;49.894;8.084;2023-04-05T06:53:26;3.80;99.90
16408;DHT22;8313;49.894;8.084;2023-04-05T06:55:56;3.90;99.90
16408;DHT22;8313;49.894;8.084;2023-04-05T06:58:23;3.90;99.90
16408;DHT22;8313;49.894;8.084;2023-04-05T07:00:50;4.00;99.90
16408;DHT22;8313;49.894;8.084;2023-04-05T07:03:16;4.10;99.90
16408;DHT22;8313;49.894;8.084;2023-04-05T07:06:02;4.20;99.90
16408;DHT22;8313;49.894;8.084;2023-04-05T07:08:31;4.20;99.90
16408;DHT22;8313;49.894;8.084;2023-04-05T07:10:57;4.30;99.90
16408;DHT22;8313;49.894;8.084;2023-04-05T07:13:23;4.30;99.90
16408;DHT22;8313;49.894;8.084;2023-04-05T07:15:50;4.40;99.90
16408;DHT22;8313;49.894;8.084;2023-04-05T07:18:16;4.40;99.90
16408;DHT22;8313;49.894;8.084;2023-04-05T07:20:45;4.50;99.90
16408;DHT22;8313;49.894;8.084;2023-04-05T07:23:11;4.50;99.90
16408;DHT22;8313;49.894;8.084;2023-04-05T07:25:38;4.60;99.90
16408;DHT22;8313;49.894;8.084;2023-04-05T07:28:04;4.60;99.90
16408;DHT22;8313;49.894;8.084;2023-04-05T07:30:30;4.70;99.90
16408;DHT22;8313;49.894;8.084;2023-04-05T07:32:56;4.70;99.90
16408;DHT22;8313;49.894;8.084;2023-04-05T07:35:23;4.80;99.90
16408;DHT22;8313;49.894;8.084;2023-04-05T07:37:48;5.00;99.90
16408;DHT22;8313;49.894;8.084;2023-04-05T07:40:14;5.00;99.90
16408;DHT22;8313;49.894;8.084;2023-04-05T07:42:40;5.00;99.90
16408;DHT22;8313;49.894;8.084;2023-04-05T07:45:06;5.00;99.90
16408;DHT22;8313;49.894;8.084;2023-04-05T07:47:32;5.10;99.90
16408;DHT22;8313;49.894;8.084;2023-04-05T07:50:02;5.10;99.90
16408;DHT22;8313;49.894;8.084;2023-04-05T07:52:27;5.20;99.90
16408;DHT22;8313;49.894;8.084;2023-04-05T07:54:54;5.20;99.90
16408;DHT22;8313;49.894;8.084;2023-04-05T07:57:20;5.20;99.90
16408;DHT22;8313;49.894;8.084;2023-04-05T07:59:47;5.20;99.90
16408;DHT22;8313;49.894;8.084;2023-04-05T08:02:15;5.10;99.90
16408;DHT22;8313;49.894;8.084;2023-04-05T08:04:41;5.20;99.90
16408;DHT22;8313;49.894;8.084;2023-04-05T08:07:07;5.40;99.90
16408;DHT22;8313;49.894;8.084;2023-04-05T08:09:32;5.60;99.90
16408;DHT22;8313;49.894;8.084;2023-04-05T08:11:59;5.70;99.90
16408;DHT22;8313;49.894;8.084;2023-04-05T08:14:27;5.80;99.90
16408;DHT22;8313;49.894;8.084;2023-04-05T08:16:53;5.80;99.90
16408;DHT22;8313;49.894;8.084;2023-04-05T08:19:18;5.80;99.90
16408;DHT22;8313;49.894;8.084;2023-04-05T08:21:44;5.90;99.90
16408;DHT22;8313;49.894;8.084;2023-04-05T08:24:09;6.10;99.90
16408;DHT22;8313;49.894;8.084;2023-04-05T08:26:35;6.10;99.90
16408;DHT22;8313;49.894;8.084;2023-04-05T08:29:01;6.20;99.90
16408;DHT22;8313;49.894;8.084;2023-04-05T08:31:26;6.20;99.90
16408;DHT22;8313;49.894;8.084;2023-04-05T08:33:52;6.40;99.90
16408;DHT22;8313;49.894;8.084;2023-04-05T08:36:18;6.60;99.90
16408;DHT22;8313;49.894;8.084;2023-04-05T08:38:44;6.60;99.90
16408;DHT22;8313;49.894;8.084;2023-04-05T08:41:21;6.60;99.90
16408;DHT22;8313;49.894;8.084;2023-04-05T08:44:00;6.60;99.90
16408;DHT22;8313;49.894;8.084;2023-04-05T08:46:32;6.80;99.90
16408;DHT22;8313;49.894;8.084;2023-04-05T08:48:59;7.00;99.90
16408;DHT22;8313;49.894;8.084;2023-04-05T08:51:28;7.40;99.90
16408;DHT22;8313;49.894;8.084;2023-04-05T08:53:54;7.40;99.90
16408;DHT22;8313;49.894;8.084;2023-04-05T08:56:26;7.50;99.90
16408;DHT22;8313;49.894;8.084;2023-04-05T09:01:24;7.60;99.60
16408;DHT22;8313;49.894;8.084;2023-04-05T09:03:52;7.50;99.10
16408;DHT22;8313;49.894;8.084;2023-04-05T09:06:20;7.60;99.90
16408;DHT22;8313;49.894;8.084;2023-04-05T09:08:47;7.70;99.90
16408;DHT22;8313;49.894;8.084;2023-04-05T09:11:13;7.80;99.80
16408;DHT22;8313;49.894;8.084;2023-04-05T09:13:39;8.00;99.50
16408;DHT22;8313;49.894;8.084;2023-04-05T09:16:06;7.70;98.40
16408;DHT22;8313;49.894;8.084;2023-04-05T09:18:32;7.60;99.30
16408;DHT22;8313;49.894;8.084;2023-04-05T09:21:04;7.60;99.30
16408;DHT22;8313;49.894;8.084;2023-04-05T09:23:30;8.00;99.70
16408;DHT22;8313;49.894;8.084;2023-04-05T09:25:58;8.50;99.40
16408;DHT22;8313;49.894;8.084;2023-04-05T09:28:39;8.80;99.00
16408;DHT22;8313;49.894;8.084;2023-04-05T09:31:05;9.10;98.30
16408;DHT22;8313;49.894;8.084;2023-04-05T09:33:31;9.20;98.20
16408;DHT22;8313;49.894;8.084;2023-04-05T09:35:57;9.40;97.60
16408;DHT22;8313;49.894;8.084;2023-04-05T09:38:41;9.20;97.20
16408;DHT22;8313;49.894;8.084;2023-04-05T09:41:08;9.00;97.50
16408;DHT22;8313;49.894;8.084;2023-04-05T09:43:40;8.80;96.70
16408;DHT22;8313;49.894;8.084;2023-04-05T09:46:06;8.60;97.70
16408;DHT22;8313;49.894;8.084;2023-04-05T09:48:50;8.90;98.30
16408;DHT22;8313;49.894;8.084;2023-04-05T09:51:17;9.30;98.30
16408;DHT22;8313;49.894;8.084;2023-04-05T09:54:02;9.40;97.80
16408;DHT22;8313;49.894;8.084;2023-04-05T09:56:40;9.80;97.30
16408;DHT22;8313;49.894;8.084;2023-04-05T09:59:17;9.90;96.90
16408;DHT22;8313;49.894;8.084;2023-04-05T10:01:43;9.80;97.60
16408;DHT22;8313;49.894;8.084;2023-04-05T10:04:09;9.80;97.40
16408;DHT22;8313;49.894;8.084;2023-04-05T10:06:40;10.30;95.70
16408;DHT22;8313;49.894;8.084;2023-04-05T10:09:08;10.60;95.70
16408;DHT22;8313;49.894;8.084;2023-04-05T10:11:35;10.60;95.70
16408;DHT22;8313;49.894;8.084;2023-04-05T10:14:05;10.70;95.40
16408;DHT22;8313;49.894;8.084;2023-04-05T10:16:35;10.60;95.20
16408;DHT22;8313;49.894;8.084;2023-04-05T10:19:04;10.70;95.20
16408;DHT22;8313;49.894;8.084;2023-04-05T10:21:35;10.50;95.50
16408;DHT22;8313;49.894;8.084;2023-04-05T10:24:17;10.60;95.50
16408;DHT22;8313;49.894;8.084;2023-04-05T10:26:44;10.70;95.60
16408;DHT22;8313;49.894;8.084;2023-04-05T10:29:19;10.90;94.50
16408;DHT22;8313;49.894;8.084;2023-04-05T10:31:54;11.10;95.00
16408;DHT22;8313;49.894;8.084;2023-04-05T10:34:30;11.10;94.40
16408;DHT22;8313;49.894;8.084;2023-04-05T10:37:01;11.00;95.20
16408;DHT22;8313;49.894;8.084;2023-04-05T10:39:44;11.10;95.00
16408;DHT22;8313;49.894;8.084;2023-04-05T10:42:21;11.10;93.60
16408;DHT22;8313;49.894;8.084;2023-04-05T10:44:51;10.80;94.70
16408;DHT22;8313;49.894;8.084;2023-04-05T10:47:18;10.90;94.30
16408;DHT22;8313;49.894;8.084;2023-04-05T10:49:48;11.30;93.40
16408;DHT22;8313;49.894;8.084;2023-04-05T10:52:16;11.30;94.30
16408;DHT22;8313;49.894;8.084;2023-04-05T10:54:43;11.50;93.60
16408;DHT22;8313;49.894;8.084;2023-04-05T10:57:09;11.60;93.20
16408;DHT22;8313;49.894;8.084;2023-04-05T10:59:44;12.10;92.60
16408;DHT22;8313;49.894;8.084;2023-04-05T11:02:10;12.10;92.60
16408;DHT22;8313;49.894;8.084;2023-04-05T11:04:37;12.10;92.10
16408;DHT22;8313;49.894;8.084;2023-04-05T11:07:17;11.90;92.50
16408;DHT22;8313;49.894;8.084;2023-04-05T11:10:02;11.90;92.50
16408;DHT22;8313;49.894;8.084;2023-04-05T11:18:20;12.40;92.30
16408;DHT22;8313;49.894;8.084;2023-04-05T11:21:04;12.70;91.40
16408;DHT22;8313;49.894;8.084;2023-04-05T11:23:30;12.70;91.00
16408;DHT22;8313;49.894;8.084;2023-04-05T11:26:03;12.90;90.00
16408;DHT22;8313;49.894;8.084;2023-04-05T11:31:15;12.90;91.50
16408;DHT22;8313;49.894;8.084;2023-04-05T11:36:29;12.20;91.70
16408;DHT22;8313;49.894;8.084;2023-04-05T11:41:43;12.00;90.80
16408;DHT22;8313;49.894;8.084;2023-04-05T11:44:14;12.20;90.30
16408;DHT22;8313;49.894;8.084;2023-04-05T11:46:41;12.30;90.10
16408;DHT22;8313;49.894;8.084;2023-04-05T11:49:07;12.70;89.40
16408;DHT22;8313;49.894;8.084;2023-04-05T11:51:33;13.10;90.00
16408;DHT22;8313;49.894;8.084;2023-04-05T11:53:59;13.20;88.60
16408;DHT22;8313;49.894;8.084;2023-04-05T11:56:24;13.30;87.40
16408;DHT22;8313;49.894;8.084;2023-04-05T11:58:50;13.30;89.00
16408;DHT22;8313;49.894;8.084;2023-04-05T12:01:16;13.50;90.30
16408;DHT22;8313;49.894;8.084;2023-04-05T12:03:42;13.60;89.40
16408;DHT22;8313;49.894;8.084;2023-04-05T12:06:08;13.60;86.80
16408;DHT22;8313;49.894;8.084;2023-04-05T12:08:39;13.60;85.70
16408;DHT22;8313;49.894;8.084;2023-04-05T12:11:08;13.70;87.30
16408;DHT22;8313;49.894;8.084;2023-04-05T12:13:34;13.50;86.20
16408;DHT22;8313;49.894;8.084;2023-04-05T12:16:01;13.40;84.50
16408;DHT22;8313;49.894;8.084;2023-04-05T12:18:30;13.30;84.60
16408;DHT22;8313;49.894;8.084;2023-04-05T12:20:56;13.20;86.00
16408;DHT22;8313;49.894;8.084;2023-04-05T12:23:23;13.00;85.50
16408;DHT22;8313;49.894;8.084;2023-04-05T12:25:50;12.60;84.40
16408;DHT22;8313;49.894;8.084;2023-04-05T12:28:17;11.80;83.30
16408;DHT22;8313;49.894;8.084;2023-04-05T12:30:50;11.40;84.00
16408;DHT22;8313;49.894;8.084;2023-04-05T12:33:26;11.50;82.90
16408;DHT22;8313;49.894;8.084;2023-04-05T12:35:57;11.50;83.20
16408;DHT22;8313;49.894;8.084;2023-04-05T12:38:26;11.50;85.20
16408;DHT22;8313;49.894;8.084;2023-04-05T12:40:53;11.70;86.10
16408;DHT22;8313;49.894;8.084;2023-04-05T12:43:23;12.40;87.50
16408;DHT22;8313;49.894;8.084;2023-04-05T12:45:53;13.00;88.00
16408;DHT22;8313;49.894;8.084;2023-04-05T12:48:22;13.60;87.40
16408;DHT22;8313;49.894;8.084;2023-04-05T12:50:50;13.80;87.80
16408;DHT22;8313;49.894;8.084;2023-04-05T12:53:23;13.90;88.20
16408;DHT22;8313;49.894;8.084;2023-04-05T12:55:55;13.60;86.40
16408;DHT22;8313;49.894;8.084;2023-04-05T12:58:30;13.80;84.20
16408;DHT22;8313;49.894;8.084;2023-04-05T13:00:57;14.30;84.10
16408;DHT22;8313;49.894;8.084;2023-04-05T13:03:25;14.20;86.80
16408;DHT22;8313;49.894;8.084;2023-04-05T13:05:52;14.20;83.60
16408;DHT22;8313;49.894;8.084;2023-04-05T13:08:18;14.40;82.30
16408;DHT22;8313;49.894;8.084;2023-04-05T13:10:48;14.50;77.50
16408;DHT22;8313;49.894;8.084;2023-04-05T13:13:14;14.50;80.10
16408;DHT22;8313;49.894;8.084;2023-04-05T13:15:41;14.00;80.10
16408;DHT22;8313;49.894;8.084;2023-04-05T13:18:06;13.80;80.30
16408;DHT22;8313;49.894;8.084;2023-04-05T13:20:32;13.00;77.40
16408;DHT22;8313;49.894;8.084;2023-04-05T13:22:58;12.80;81.70
16408;DHT22;8313;49.894;8.084;2023-04-05T13:25:24;13.30;81.10
16408;DHT22;8313;49.894;8.084;2023-04-05T13:27:50;13.00;80.60
16408;DHT22;8313;49.894;8.084;2023-04-05T13:30:16;13.10;81.60
16408;DHT22;8313;49.894;8.084;2023-04-05T13:32:42;13.60;83.70
16408;DHT22;8313;49.894;8.084;2023-04-05T13:35:08;13.40;81.60
16408;DHT22;8313;49.894;8.084;2023-04-05T13:37:34;12.80;80.60
16408;DHT22;8313;49.894;8.084;2023-04-05T13:39:59;12.60;80.20
16408;DHT22;8313;49.894;8.084;2023-04-05T13:42:25;13.20;83.10
16408;DHT22;8313;49.894;8.084;2023-04-05T13:44:51;13.50;80.10
16408;DHT22;8313;49.894;8.084;2023-04-05T13:47:16;13.70;82.20
16408;DHT22;8313;49.894;8.084;2023-04-05T13:49:42;14.10;82.50
16408;DHT22;8313;49.894;8.084;2023-04-05T13:52:08;14.40;80.60
16408;DHT22;8313;49.894;8.084;2023-04-05T13:54:34;14.60;78.60
16408;DHT22;8313;49.894;8.084;2023-04-05T13:57:00;14.70;80.30
16408;DHT22;8313;49.894;8.084;2023-04-05T13:59:25;14.60;81.60
16408;DHT22;8313;49.894;8.084;2023-04-05T14:01:51;14.60;82.30
16408;DHT22;8313;49.894;8.084;2023-04-05T14:04:17;14.70;80.50
16408;DHT22;8313;49.894;8.084;2023-04-05T14:06:43;14.70;81.90
16408;DHT22;8313;49.894;8.084;2023-04-05T14:09:10;14.60;79.10
16408;DHT22;8313;49.894;8.084;2023-04-05T14:11:36;14.20;77.00
16408;DHT22;8313;49.894;8.084;2023-04-05T14:14:02;14.60;80.10
16408;DHT22;8313;49.894;8.084;2023-04-05T14:16:28;14.50;77.80
16408;DHT22;8313;49.894;8.084;2023-04-05T14:18:54;14.80;79.50
16408;DHT22;8313;49.894;8.084;2023-04-05T14:21:20;15.10;79.80
16408;DHT22;8313;49.894;8.084;2023-04-05T14:23:46;15.10;79.70
16408;DHT22;8313;49.894;8.084;2023-04-05T14:26:12;15.10;80.20
16408;DHT22;8313;49.894;8.084;2023-04-05T14:28:37;14.50;77.00
16408;DHT22;8313;49.894;8.084;2023-04-05T14:31:03;14.80;78.50
16408;DHT22;8313;49.894;8.084;2023-04-05T14:33:29;15.00;77.60
16408;DHT22;8313;49.894;8.084;2023-04-05T14:35:55;15.10;79.50
16408;DHT22;8313;49.894;8.084;2023-04-05T14:38:21;15.00;79.70
16408;DHT22;8313;49.894;8.084;2023-04-05T14:40:46;14.70;79.00
16408;DHT22;8313;49.894;8.084;2023-04-05T14:43:12;13.80;79.00
16408;DHT22;8313;49.894;8.084;2023-04-05T14:45:37;13.40;81.60
16408;DHT22;8313;49.894;8.084;2023-04-05T14:48:03;13.60;82.70
16408;DHT22;8313;49.894;8.084;2023-04-05T14:50:29;13.80;80.90
16408;DHT22;8313;49.894;8.084;2023-04-05T14:52:59;13.80;80.10
16408;DHT22;8313;49.894;8.084;2023-04-05T14:55:26;13.50;80.20
16408;DHT22;8313;49.894;8.084;2023-04-05T14:57:52;13.50;81.60
16408;DHT22;8313;49.894;8.084;2023-04-05T15:00:18;13.70;82.00
16408;DHT22;8313;49.894;8.084;2023-04-05T15:02:44;14.10;80.20
16408;DHT22;8313;49.894;8.084;2023-04-05T15:05:10;14.50;77.10
16408;DHT22;8313;49.894;8.084;2023-04-05T15:07:36;14.40;77.00
16408;DHT22;8313;49.894;8.084;2023-04-05T15:10:02;14.50;78.70
16408;DHT22;8313;49.894;8.084;2023-04-05T15:12:28;14.60;72.80
16408;DHT22;8313;49.894;8.084;2023-04-05T15:14:54;14.20;74.30
16408;DHT22;8313;49.894;8.084;2023-04-05T15:17:20;13.80;77.30
16408;DHT22;8313;49.894;8.084;2023-04-05T15:19:46;13.80;79.80
16408;DHT22;8313;49.894;8.084;2023-04-05T15:22:12;13.90;74.40
16408;DHT22;8313;49.894;8.084;2023-04-05T15:24:38;14.20;76.20
16408;DHT22;8313;49.894;8.084;2023-04-05T15:27:06;14.10;78.30
16408;DHT22;8313;49.894;8.084;2023-04-05T15:29:32;13.80;76.60
16408;DHT22;8313;49.894;8.084;2023-04-05T15:31:58;14.00;79.20
16408;DHT22;8313;49.894;8.084;2023-04-05T15:34:25;13.60;75.60
16408;DHT22;8313;49.894;8.084;2023-04-05T15:36:51;13.80;77.80
16408;DHT22;8313;49.894;8.084;2023-04-05T15:39:18;13.80;74.40
16408;DHT22;8313;49.894;8.084;2023-04-05T15:41:44;13.90;73.40
16408;DHT22;8313;49.894;8.084;2023-04-05T15:44:10;14.20;73.80
16408;DHT22;8313;49.894;8.084;2023-04-05T15:46:36;14.30;75.70
16408;DHT22;8313;49.894;8.084;2023-04-05T15:49:02;14.40;76.50
16408;DHT22;8313;49.894;8.084;2023-04-05T15:51:27;14.30;75.60
16408;DHT22;8313;49.894;8.084;2023-04-05T15:53:54;14.20;75.50
16408;DHT22;8313;49.894;8.084;2023-04-05T15:56:19;13.90;77.20
16408;DHT22;8313;49.894;8.084;2023-04-05T15:58:45;13.80;75.20
16408;DHT22;8313;49.894;8.084;2023-04-05T16:01:11;13.70;77.80
16408;DHT22;8313;49.894;8.084;2023-04-05T16:03:37;13.30;78.40
16408;DHT22;8313;49.894;8.084;2023-04-05T16:06:03;13.30;73.90
16408;DHT22;8313;49.894;8.084;2023-04-05T16:08:29;13.60;76.40
16408;DHT22;8313;49.894;8.084;2023-04-05T16:10:55;13.60;71.50
16408;DHT22;8313;49.894;8.084;2023-04-05T16:13:21;13.40;72.30
16408;DHT22;8313;49.894;8.084;2023-04-05T16:15:46;13.60;75.00
16408;DHT22;8313;49.894;8.084;2023-04-05T16:18:13;13.80;75.10
16408;DHT22;8313;49.894;8.084;2023-04-05T16:20:39;13.80;73.00
16408;DHT22;8313;49.894;8.084;2023-04-05T16:23:07;13.70;76.90
16408;DHT22;8313;49.894;8.084;2023-04-05T16:25:32;13.80;76.10
16408;DHT22;8313;49.894;8.084;2023-04-05T16:27:58;13.80;74.40
16408;DHT22;8313;49.894;8.084;2023-04-05T16:30:24;13.90;74.00
16408;DHT22;8313;49.894;8.084;2023-04-05T16:32:51;13.70;71.90
16408;DHT22;8313;49.894;8.084;2023-04-05T16:35:18;13.40;68.90